Terminal Aerodrome Forecast
Issued by NWS Binghamton, NY

Home | Current Version | Previous Version | Text Only | Print | Product List | Glossary On
Versions: 1 2 3 4 5 6 7 8 9 10 11 12 13 14 15 16 17 18
000
FTUS41 KBGM 212300
TAFAVP
TAF
KAVP 212328Z 2200/2224 20005KT P6SM BKN050
      TEMPO 2201/2203 5SM SHRA OVC025
     FM220400 25006KT P6SM SCT080
     FM220800 29008KT P6SM OVC030
     FM221500 31012G20KT P6SM BKN035=

USA.gov is the U.S. government's official web portal to all federal, state and local government web resources and services.